sensor_id;sensor_type;location;lat;lon;timestamp;P1;durP1;ratioP1;P2;durP2;ratioP2
14125;SDS011;7141;49.484;11.242;2023-05-29T00:01:49;8.43;;;3.47;;
14125;SDS011;7141;49.484;11.242;2023-05-29T00:04:15;7.23;;;3.87;;
14125;SDS011;7141;49.484;11.242;2023-05-29T00:06:41;6.77;;;3.10;;
14125;SDS011;7141;49.484;11.242;2023-05-29T00:09:07;7.20;;;3.10;;
14125;SDS011;7141;49.484;11.242;2023-05-29T00:11:33;5.13;;;3.17;;
14125;SDS011;7141;49.484;11.242;2023-05-29T00:13:59;6.93;;;3.33;;
14125;SDS011;7141;49.484;11.242;2023-05-29T00:16:25;7.27;;;3.20;;
14125;SDS011;7141;49.484;11.242;2023-05-29T00:18:51;6.23;;;3.40;;
14125;SDS011;7141;49.484;11.242;2023-05-29T00:21:18;10.33;;;3.53;;
14125;SDS011;7141;49.484;11.242;2023-05-29T00:23:44;4.30;;;3.30;;
14125;SDS011;7141;49.484;11.242;2023-05-29T00:26:10;5.40;;;2.97;;
14125;SDS011;7141;49.484;11.242;2023-05-29T00:28:37;4.07;;;2.70;;
14125;SDS011;7141;49.484;11.242;2023-05-29T00:31:03;5.80;;;3.10;;
14125;SDS011;7141;49.484;11.242;2023-05-29T00:33:29;5.17;;;2.70;;
14125;SDS011;7141;49.484;11.242;2023-05-29T00:35:55;4.80;;;3.23;;
14125;SDS011;7141;49.484;11.242;2023-05-29T00:38:21;4.97;;;3.17;;
14125;SDS011;7141;49.484;11.242;2023-05-29T00:40:47;4.50;;;3.30;;
14125;SDS011;7141;49.484;11.242;2023-05-29T00:43:13;8.70;;;3.13;;
14125;SDS011;7141;49.484;11.242;2023-05-29T00:45:39;4.33;;;3.10;;
14125;SDS011;7141;49.484;11.242;2023-05-29T00:48:05;6.07;;;3.50;;
14125;SDS011;7141;49.484;11.242;2023-05-29T00:50:33;7.60;;;3.07;;
14125;SDS011;7141;49.484;11.242;2023-05-29T00:53:02;8.07;;;3.60;;
14125;SDS011;7141;49.484;11.242;2023-05-29T00:55:29;5.47;;;3.13;;
14125;SDS011;7141;49.484;11.242;2023-05-29T00:57:56;4.60;;;3.00;;
14125;SDS011;7141;49.484;11.242;2023-05-29T01:00:22;6.33;;;3.20;;
14125;SDS011;7141;49.484;11.242;2023-05-29T01:02:48;7.30;;;3.40;;
14125;SDS011;7141;49.484;11.242;2023-05-29T01:05:14;7.93;;;3.50;;
14125;SDS011;7141;49.484;11.242;2023-05-29T01:07:40;6.73;;;3.30;;
14125;SDS011;7141;49.484;11.242;2023-05-29T01:10:07;6.33;;;3.33;;
14125;SDS011;7141;49.484;11.242;2023-05-29T01:20:25;5.20;;;3.23;;
14125;SDS011;7141;49.484;11.242;2023-05-29T01:23:07;6.50;;;3.20;;
14125;SDS011;7141;49.484;11.242;2023-05-29T01:28:19;3.80;;;2.73;;
14125;SDS011;7141;49.484;11.242;2023-05-29T01:30:46;6.50;;;3.57;;
14125;SDS011;7141;49.484;11.242;2023-05-29T01:33:12;6.17;;;3.37;;
14125;SDS011;7141;49.484;11.242;2023-05-29T01:35:38;6.47;;;2.97;;
14125;SDS011;7141;49.484;11.242;2023-05-29T01:38:04;6.67;;;3.27;;
14125;SDS011;7141;49.484;11.242;2023-05-29T01:40:30;7.47;;;3.17;;
14125;SDS011;7141;49.484;11.242;2023-05-29T01:42:56;7.53;;;3.30;;
14125;SDS011;7141;49.484;11.242;2023-05-29T01:45:22;8.27;;;3.53;;
14125;SDS011;7141;49.484;11.242;2023-05-29T01:47:48;6.47;;;3.60;;
14125;SDS011;7141;49.484;11.242;2023-05-29T01:50:15;6.23;;;3.20;;
14125;SDS011;7141;49.484;11.242;2023-05-29T01:52:44;4.80;;;3.13;;
14125;SDS011;7141;49.484;11.242;2023-05-29T01:55:10;5.70;;;3.30;;
14125;SDS011;7141;49.484;11.242;2023-05-29T01:57:36;6.10;;;3.57;;
14125;SDS011;7141;49.484;11.242;2023-05-29T02:00:03;7.07;;;3.50;;
14125;SDS011;7141;49.484;11.242;2023-05-29T02:02:40;5.47;;;3.37;;
14125;SDS011;7141;49.484;11.242;2023-05-29T02:05:07;5.03;;;3.33;;
14125;SDS011;7141;49.484;11.242;2023-05-29T02:07:33;7.50;;;3.43;;
14125;SDS011;7141;49.484;11.242;2023-05-29T02:09:59;6.57;;;3.60;;
14125;SDS011;7141;49.484;11.242;2023-05-29T02:12:25;5.10;;;3.30;;
14125;SDS011;7141;49.484;11.242;2023-05-29T02:14:51;6.83;;;3.43;;
14125;SDS011;7141;49.484;11.242;2023-05-29T02:17:17;5.37;;;3.33;;
14125;SDS011;7141;49.484;11.242;2023-05-29T02:19:44;4.70;;;3.37;;
14125;SDS011;7141;49.484;11.242;2023-05-29T02:22:10;8.23;;;3.60;;
14125;SDS011;7141;49.484;11.242;2023-05-29T02:24:36;7.30;;;3.90;;
14125;SDS011;7141;49.484;11.242;2023-05-29T02:27:02;6.80;;;3.53;;
14125;SDS011;7141;49.484;11.242;2023-05-29T02:29:28;7.70;;;3.47;;
14125;SDS011;7141;49.484;11.242;2023-05-29T02:31:54;7.90;;;3.40;;
14125;SDS011;7141;49.484;11.242;2023-05-29T02:34:20;5.83;;;3.53;;
14125;SDS011;7141;49.484;11.242;2023-05-29T02:36:49;5.23;;;3.17;;
14125;SDS011;7141;49.484;11.242;2023-05-29T02:39:17;4.97;;;3.37;;
14125;SDS011;7141;49.484;11.242;2023-05-29T02:41:43;6.23;;;3.40;;
14125;SDS011;7141;49.484;11.242;2023-05-29T02:44:09;6.30;;;3.30;;
14125;SDS011;7141;49.484;11.242;2023-05-29T02:46:35;7.10;;;3.70;;
14125;SDS011;7141;49.484;11.242;2023-05-29T02:49:01;5.77;;;3.80;;
14125;SDS011;7141;49.484;11.242;2023-05-29T02:51:27;4.53;;;3.07;;
14125;SDS011;7141;49.484;11.242;2023-05-29T02:53:53;6.27;;;3.20;;
14125;SDS011;7141;49.484;11.242;2023-05-29T02:56:19;5.60;;;3.17;;
14125;SDS011;7141;49.484;11.242;2023-05-29T02:58:49;7.77;;;3.60;;
14125;SDS011;7141;49.484;11.242;2023-05-29T03:01:15;7.10;;;3.97;;
14125;SDS011;7141;49.484;11.242;2023-05-29T03:03:41;5.63;;;3.37;;
14125;SDS011;7141;49.484;11.242;2023-05-29T03:06:07;5.10;;;3.40;;
14125;SDS011;7141;49.484;11.242;2023-05-29T03:08:34;8.90;;;3.70;;
14125;SDS011;7141;49.484;11.242;2023-05-29T03:11:04;8.57;;;3.67;;
14125;SDS011;7141;49.484;11.242;2023-05-29T03:13:30;6.03;;;3.40;;
14125;SDS011;7141;49.484;11.242;2023-05-29T03:15:59;9.77;;;4.00;;
14125;SDS011;7141;49.484;11.242;2023-05-29T03:18:25;5.73;;;3.30;;
14125;SDS011;7141;49.484;11.242;2023-05-29T03:20:51;6.97;;;3.40;;
14125;SDS011;7141;49.484;11.242;2023-05-29T03:23:17;6.50;;;3.60;;
14125;SDS011;7141;49.484;11.242;2023-05-29T03:25:43;5.67;;;3.43;;
14125;SDS011;7141;49.484;11.242;2023-05-29T03:28:09;6.30;;;3.43;;
14125;SDS011;7141;49.484;11.242;2023-05-29T03:30:35;8.60;;;3.40;;
14125;SDS011;7141;49.484;11.242;2023-05-29T03:33:01;8.33;;;3.50;;
14125;SDS011;7141;49.484;11.242;2023-05-29T03:35:29;8.37;;;3.60;;
14125;SDS011;7141;49.484;11.242;2023-05-29T03:37:55;7.73;;;3.60;;
14125;SDS011;7141;49.484;11.242;2023-05-29T03:40:21;6.00;;;3.37;;
14125;SDS011;7141;49.484;11.242;2023-05-29T03:42:46;11.03;;;3.77;;
14125;SDS011;7141;49.484;11.242;2023-05-29T03:45:12;6.57;;;3.80;;
14125;SDS011;7141;49.484;11.242;2023-05-29T03:47:38;5.73;;;3.27;;
14125;SDS011;7141;49.484;11.242;2023-05-29T03:50:04;7.93;;;3.37;;
14125;SDS011;7141;49.484;11.242;2023-05-29T03:52:31;11.70;;;3.63;;
14125;SDS011;7141;49.484;11.242;2023-05-29T03:54:57;3.87;;;3.30;;
14125;SDS011;7141;49.484;11.242;2023-05-29T03:57:23;5.83;;;3.20;;
14125;SDS011;7141;49.484;11.242;2023-05-29T03:59:49;7.53;;;3.43;;
14125;SDS011;7141;49.484;11.242;2023-05-29T04:02:15;7.37;;;3.47;;
14125;SDS011;7141;49.484;11.242;2023-05-29T04:04:41;4.97;;;3.57;;
14125;SDS011;7141;49.484;11.242;2023-05-29T04:07:07;8.47;;;4.30;;
14125;SDS011;7141;49.484;11.242;2023-05-29T04:09:33;5.33;;;3.80;;
14125;SDS011;7141;49.484;11.242;2023-05-29T04:11:59;7.00;;;3.60;;
14125;SDS011;7141;49.484;11.242;2023-05-29T04:14:27;7.93;;;3.63;;
14125;SDS011;7141;49.484;11.242;2023-05-29T04:16:53;7.30;;;3.43;;
14125;SDS011;7141;49.484;11.242;2023-05-29T04:19:19;6.80;;;3.60;;
14125;SDS011;7141;49.484;11.242;2023-05-29T04:21:46;7.10;;;3.70;;
14125;SDS011;7141;49.484;11.242;2023-05-29T04:24:13;7.00;;;3.80;;
14125;SDS011;7141;49.484;11.242;2023-05-29T04:26:39;5.33;;;3.30;;
14125;SDS011;7141;49.484;11.242;2023-05-29T04:29:06;7.43;;;3.70;;
14125;SDS011;7141;49.484;11.242;2023-05-29T04:31:32;4.57;;;3.50;;
14125;SDS011;7141;49.484;11.242;2023-05-29T04:33:58;5.20;;;3.37;;
14125;SDS011;7141;49.484;11.242;2023-05-29T04:36:25;4.13;;;3.33;;
14125;SDS011;7141;49.484;11.242;2023-05-29T04:38:54;6.30;;;3.83;;
14125;SDS011;7141;49.484;11.242;2023-05-29T04:41:22;8.60;;;4.00;;
14125;SDS011;7141;49.484;11.242;2023-05-29T04:43:54;7.10;;;3.73;;
14125;SDS011;7141;49.484;11.242;2023-05-29T04:46:21;6.70;;;3.80;;
14125;SDS011;7141;49.484;11.242;2023-05-29T04:48:47;5.50;;;3.47;;
14125;SDS011;7141;49.484;11.242;2023-05-29T04:51:18;5.83;;;3.40;;
14125;SDS011;7141;49.484;11.242;2023-05-29T04:53:45;5.87;;;3.90;;
14125;SDS011;7141;49.484;11.242;2023-05-29T04:56:11;6.20;;;3.53;;
14125;SDS011;7141;49.484;11.242;2023-05-29T04:58:37;8.53;;;4.17;;
14125;SDS011;7141;49.484;11.242;2023-05-29T05:01:03;7.40;;;3.27;;
14125;SDS011;7141;49.484;11.242;2023-05-29T05:03:30;6.60;;;3.90;;
14125;SDS011;7141;49.484;11.242;2023-05-29T05:05:58;7.40;;;3.23;;
14125;SDS011;7141;49.484;11.242;2023-05-29T05:08:24;6.50;;;3.70;;
14125;SDS011;7141;49.484;11.242;2023-05-29T05:10:50;5.03;;;3.37;;
14125;SDS011;7141;49.484;11.242;2023-05-29T05:13:16;5.43;;;3.47;;
14125;SDS011;7141;49.484;11.242;2023-05-29T05:15:42;7.77;;;3.93;;
14125;SDS011;7141;49.484;11.242;2023-05-29T05:18:08;6.37;;;4.03;;
14125;SDS011;7141;49.484;11.242;2023-05-29T05:20:34;8.27;;;3.57;;
14125;SDS011;7141;49.484;11.242;2023-05-29T05:23:00;8.07;;;4.20;;
14125;SDS011;7141;49.484;11.242;2023-05-29T05:25:26;6.90;;;3.33;;
14125;SDS011;7141;49.484;11.242;2023-05-29T05:27:52;5.53;;;3.80;;
14125;SDS011;7141;49.484;11.242;2023-05-29T05:30:18;3.93;;;3.33;;
14125;SDS011;7141;49.484;11.242;2023-05-29T05:32:45;5.23;;;3.23;;
14125;SDS011;7141;49.484;11.242;2023-05-29T05:35:10;5.47;;;3.30;;
14125;SDS011;7141;49.484;11.242;2023-05-29T05:37:37;8.23;;;3.57;;
14125;SDS011;7141;49.484;11.242;2023-05-29T05:40:03;5.97;;;3.13;;
14125;SDS011;7141;49.484;11.242;2023-05-29T05:42:31;6.13;;;3.10;;
14125;SDS011;7141;49.484;11.242;2023-05-29T05:44:58;5.13;;;3.27;;
14125;SDS011;7141;49.484;11.242;2023-05-29T05:47:24;4.93;;;3.03;;
14125;SDS011;7141;49.484;11.242;2023-05-29T05:49:50;6.83;;;3.17;;
14125;SDS011;7141;49.484;11.242;2023-05-29T05:52:16;6.07;;;3.07;;
14125;SDS011;7141;49.484;11.242;2023-05-29T05:54:42;7.07;;;3.57;;
14125;SDS011;7141;49.484;11.242;2023-05-29T05:57:09;7.50;;;3.53;;
14125;SDS011;7141;49.484;11.242;2023-05-29T05:59:35;5.50;;;3.60;;
14125;SDS011;7141;49.484;11.242;2023-05-29T06:02:01;6.53;;;3.27;;
14125;SDS011;7141;49.484;11.242;2023-05-29T06:04:28;5.37;;;3.43;;
14125;SDS011;7141;49.484;11.242;2023-05-29T06:06:54;5.20;;;3.30;;
14125;SDS011;7141;49.484;11.242;2023-05-29T06:09:21;7.40;;;3.57;;
14125;SDS011;7141;49.484;11.242;2023-05-29T06:11:47;4.43;;;3.07;;
14125;SDS011;7141;49.484;11.242;2023-05-29T06:14:13;4.10;;;2.60;;
14125;SDS011;7141;49.484;11.242;2023-05-29T06:16:40;7.20;;;3.50;;
14125;SDS011;7141;49.484;11.242;2023-05-29T06:19:06;8.93;;;3.30;;
14125;SDS011;7141;49.484;11.242;2023-05-29T06:21:32;5.20;;;3.47;;
14125;SDS011;7141;49.484;11.242;2023-05-29T06:23:58;4.90;;;3.17;;
14125;SDS011;7141;49.484;11.242;2023-05-29T06:26:24;5.53;;;3.30;;
14125;SDS011;7141;49.484;11.242;2023-05-29T06:28:51;8.37;;;3.27;;
14125;SDS011;7141;49.484;11.242;2023-05-29T06:31:17;4.23;;;2.70;;
14125;SDS011;7141;49.484;11.242;2023-05-29T06:33:43;3.40;;;2.60;;
14125;SDS011;7141;49.484;11.242;2023-05-29T06:36:09;6.17;;;3.30;;
14125;SDS011;7141;49.484;11.242;2023-05-29T06:38:36;5.27;;;3.43;;
14125;SDS011;7141;49.484;11.242;2023-05-29T06:41:02;5.60;;;2.80;;
14125;SDS011;7141;49.484;11.242;2023-05-29T06:43:28;4.40;;;3.00;;
14125;SDS011;7141;49.484;11.242;2023-05-29T06:45:54;4.50;;;3.20;;
14125;SDS011;7141;49.484;11.242;2023-05-29T06:48:20;4.10;;;2.90;;
14125;SDS011;7141;49.484;11.242;2023-05-29T06:50:49;4.10;;;3.10;;
14125;SDS011;7141;49.484;11.242;2023-05-29T06:53:15;5.73;;;3.33;;
14125;SDS011;7141;49.484;11.242;2023-05-29T06:55:41;5.80;;;3.47;;
14125;SDS011;7141;49.484;11.242;2023-05-29T06:58:07;4.97;;;3.20;;
14125;SDS011;7141;49.484;11.242;2023-05-29T07:00:34;4.70;;;3.07;;
14125;SDS011;7141;49.484;11.242;2023-05-29T07:02:59;3.33;;;2.90;;
14125;SDS011;7141;49.484;11.242;2023-05-29T07:05:28;4.83;;;3.30;;
14125;SDS011;7141;49.484;11.242;2023-05-29T07:07:54;4.80;;;2.73;;
14125;SDS011;7141;49.484;11.242;2023-05-29T07:10:20;4.07;;;3.03;;
14125;SDS011;7141;49.484;11.242;2023-05-29T07:12:46;5.60;;;2.97;;
14125;SDS011;7141;49.484;11.242;2023-05-29T07:15:12;7.00;;;3.20;;
14125;SDS011;7141;49.484;11.242;2023-05-29T07:17:38;6.70;;;3.00;;
14125;SDS011;7141;49.484;11.242;2023-05-29T07:20:05;8.47;;;3.63;;
14125;SDS011;7141;49.484;11.242;2023-05-29T07:22:32;4.30;;;3.17;;
14125;SDS011;7141;49.484;11.242;2023-05-29T07:24:59;4.67;;;3.17;;
14125;SDS011;7141;49.484;11.242;2023-05-29T07:27:25;4.03;;;3.03;;
14125;SDS011;7141;49.484;11.242;2023-05-29T07:29:51;4.60;;;3.00;;
14125;SDS011;7141;49.484;11.242;2023-05-29T07:32:17;6.77;;;3.40;;
14125;SDS011;7141;49.484;11.242;2023-05-29T07:34:43;7.60;;;3.10;;
14125;SDS011;7141;49.484;11.242;2023-05-29T07:37:09;6.30;;;3.10;;
14125;SDS011;7141;49.484;11.242;2023-05-29T07:39:35;5.63;;;3.10;;
14125;SDS011;7141;49.484;11.242;2023-05-29T07:42:01;3.80;;;3.00;;
14125;SDS011;7141;49.484;11.242;2023-05-29T07:44:28;8.37;;;3.17;;
14125;SDS011;7141;49.484;11.242;2023-05-29T07:46:54;3.77;;;2.97;;
14125;SDS011;7141;49.484;11.242;2023-05-29T07:49:20;5.57;;;3.00;;
14125;SDS011;7141;49.484;11.242;2023-05-29T07:51:46;3.53;;;3.10;;
14125;SDS011;7141;49.484;11.242;2023-05-29T07:54:12;4.60;;;2.93;;
14125;SDS011;7141;49.484;11.242;2023-05-29T07:56:38;8.00;;;3.30;;
14125;SDS011;7141;49.484;11.242;2023-05-29T07:59:05;4.23;;;2.90;;
14125;SDS011;7141;49.484;11.242;2023-05-29T08:01:32;3.93;;;3.07;;
14125;SDS011;7141;49.484;11.242;2023-05-29T08:03:58;4.73;;;3.00;;
14125;SDS011;7141;49.484;11.242;2023-05-29T08:06:24;4.07;;;2.93;;
14125;SDS011;7141;49.484;11.242;2023-05-29T08:08:50;4.90;;;2.83;;
14125;SDS011;7141;49.484;11.242;2023-05-29T08:11:17;4.97;;;3.37;;
14125;SDS011;7141;49.484;11.242;2023-05-29T08:13:43;3.93;;;2.33;;
14125;SDS011;7141;49.484;11.242;2023-05-29T08:16:09;3.77;;;2.57;;
14125;SDS011;7141;49.484;11.242;2023-05-29T08:18:35;5.17;;;3.17;;
14125;SDS011;7141;49.484;11.242;2023-05-29T08:21:01;3.30;;;2.70;;
14125;SDS011;7141;49.484;11.242;2023-05-29T08:23:27;3.97;;;2.60;;
14125;SDS011;7141;49.484;11.242;2023-05-29T08:25:53;5.83;;;3.23;;
14125;SDS011;7141;49.484;11.242;2023-05-29T08:28:20;3.97;;;2.50;;
14125;SDS011;7141;49.484;11.242;2023-05-29T08:30:47;5.50;;;3.20;;
14125;SDS011;7141;49.484;11.242;2023-05-29T08:33:13;5.27;;;3.00;;
14125;SDS011;7141;49.484;11.242;2023-05-29T08:35:39;5.23;;;2.70;;
14125;SDS011;7141;49.484;11.242;2023-05-29T08:38:05;3.53;;;2.63;;
14125;SDS011;7141;49.484;11.242;2023-05-29T08:40:31;3.60;;;2.60;;
14125;SDS011;7141;49.484;11.242;2023-05-29T08:42:59;5.23;;;3.03;;
14125;SDS011;7141;49.484;11.242;2023-05-29T08:45:26;4.30;;;2.40;;
14125;SDS011;7141;49.484;11.242;2023-05-29T08:47:54;3.30;;;2.70;;
14125;SDS011;7141;49.484;11.242;2023-05-29T08:50:21;3.83;;;2.87;;
14125;SDS011;7141;49.484;11.242;2023-05-29T08:52:48;5.83;;;3.20;;
14125;SDS011;7141;49.484;11.242;2023-05-29T08:55:14;6.43;;;2.67;;
14125;SDS011;7141;49.484;11.242;2023-05-29T08:57:41;5.03;;;2.53;;
14125;SDS011;7141;49.484;11.242;2023-05-29T09:00:08;6.53;;;3.10;;
14125;SDS011;7141;49.484;11.242;2023-05-29T09:02:46;5.27;;;3.03;;
14125;SDS011;7141;49.484;11.242;2023-05-29T09:05:12;6.03;;;2.80;;
14125;SDS011;7141;49.484;11.242;2023-05-29T09:07:38;5.87;;;3.47;;
14125;SDS011;7141;49.484;11.242;2023-05-29T09:10:05;3.77;;;2.80;;
14125;SDS011;7141;49.484;11.242;2023-05-29T09:12:32;5.73;;;3.10;;
14125;SDS011;7141;49.484;11.242;2023-05-29T09:14:58;4.90;;;2.97;;
14125;SDS011;7141;49.484;11.242;2023-05-29T09:17:24;5.63;;;3.03;;
14125;SDS011;7141;49.484;11.242;2023-05-29T09:19:55;6.97;;;2.67;;
14125;SDS011;7141;49.484;11.242;2023-05-29T09:22:21;6.13;;;2.87;;
14125;SDS011;7141;49.484;11.242;2023-05-29T09:24:48;4.30;;;2.63;;
14125;SDS011;7141;49.484;11.242;2023-05-29T09:27:15;3.77;;;2.73;;
14125;SDS011;7141;49.484;11.242;2023-05-29T09:29:42;4.40;;;2.70;;
14125;SDS011;7141;49.484;11.242;2023-05-29T09:32:09;5.83;;;3.10;;
14125;SDS011;7141;49.484;11.242;2023-05-29T09:34:36;4.23;;;2.53;;
14125;SDS011;7141;49.484;11.242;2023-05-29T09:37:02;3.50;;;2.77;;
14125;SDS011;7141;49.484;11.242;2023-05-29T09:42:11;4.17;;;2.73;;
14125;SDS011;7141;49.484;11.242;2023-05-29T09:44:37;4.23;;;2.50;;
14125;SDS011;7141;49.484;11.242;2023-05-29T09:47:03;3.50;;;2.70;;
14125;SDS011;7141;49.484;11.242;2023-05-29T09:49:30;5.23;;;2.83;;
14125;SDS011;7141;49.484;11.242;2023-05-29T09:51:57;3.60;;;2.60;;
14125;SDS011;7141;49.484;11.242;2023-05-29T09:54:24;7.53;;;2.77;;
14125;SDS011;7141;49.484;11.242;2023-05-29T09:56:53;4.13;;;2.90;;
14125;SDS011;7141;49.484;11.242;2023-05-29T09:59:20;5.37;;;3.03;;
14125;SDS011;7141;49.484;11.242;2023-05-29T10:01:49;3.97;;;3.17;;
14125;SDS011;7141;49.484;11.242;2023-05-29T10:04:17;3.33;;;2.70;;
14125;SDS011;7141;49.484;11.242;2023-05-29T10:06:44;4.90;;;2.60;;
14125;SDS011;7141;49.484;11.242;2023-05-29T10:09:12;4.50;;;3.03;;
14125;SDS011;7141;49.484;11.242;2023-05-29T10:11:43;2.93;;;2.33;;
14125;SDS011;7141;49.484;11.242;2023-05-29T10:14:10;4.47;;;2.87;;
14125;SDS011;7141;49.484;11.242;2023-05-29T10:16:41;6.23;;;2.97;;
14125;SDS011;7141;49.484;11.242;2023-05-29T10:19:09;6.63;;;3.10;;
14125;SDS011;7141;49.484;11.242;2023-05-29T10:21:37;4.47;;;2.90;;
14125;SDS011;7141;49.484;11.242;2023-05-29T10:24:06;5.40;;;3.10;;
14125;SDS011;7141;49.484;11.242;2023-05-29T10:26:34;4.97;;;2.80;;
14125;SDS011;7141;49.484;11.242;2023-05-29T10:31:39;9.83;;;4.97;;
14125;SDS011;7141;49.484;11.242;2023-05-29T10:39:34;3.97;;;2.50;;
14125;SDS011;7141;49.484;11.242;2023-05-29T10:42:00;12.33;;;3.77;;
14125;SDS011;7141;49.484;11.242;2023-05-29T10:49:25;4.40;;;3.03;;
14125;SDS011;7141;49.484;11.242;2023-05-29T10:51:51;5.10;;;2.93;;
14125;SDS011;7141;49.484;11.242;2023-05-29T10:54:23;3.97;;;2.97;;
14125;SDS011;7141;49.484;11.242;2023-05-29T10:56:56;5.80;;;2.83;;
14125;SDS011;7141;49.484;11.242;2023-05-29T10:59:22;4.17;;;2.73;;
14125;SDS011;7141;49.484;11.242;2023-05-29T11:01:53;4.77;;;3.13;;
14125;SDS011;7141;49.484;11.242;2023-05-29T11:06:45;4.83;;;2.83;;
14125;SDS011;7141;49.484;11.242;2023-05-29T11:14:47;3.70;;;2.67;;
14125;SDS011;7141;49.484;11.242;2023-05-29T11:17:30;3.70;;;2.77;;
14125;SDS011;7141;49.484;11.242;2023-05-29T11:19:56;10.77;;;3.27;;
14125;SDS011;7141;49.484;11.242;2023-05-29T11:22:27;5.17;;;2.40;;
14125;SDS011;7141;49.484;11.242;2023-05-29T11:24:56;3.43;;;2.70;;
14125;SDS011;7141;49.484;11.242;2023-05-29T11:27:23;4.70;;;2.80;;
14125;SDS011;7141;49.484;11.242;2023-05-29T11:29:49;4.17;;;2.83;;
14125;SDS011;7141;49.484;11.242;2023-05-29T11:32:18;3.73;;;2.30;;
14125;SDS011;7141;49.484;11.242;2023-05-29T11:34:46;3.10;;;2.17;;
14125;SDS011;7141;49.484;11.242;2023-05-29T11:37:13;4.37;;;2.40;;
14125;SDS011;7141;49.484;11.242;2023-05-29T11:39:40;7.43;;;2.67;;
14125;SDS011;7141;49.484;11.242;2023-05-29T11:42:07;4.40;;;2.60;;
14125;SDS011;7141;49.484;11.242;2023-05-29T11:44:33;3.70;;;2.90;;
14125;SDS011;7141;49.484;11.242;2023-05-29T11:47:00;5.00;;;2.13;;
14125;SDS011;7141;49.484;11.242;2023-05-29T11:49:28;2.77;;;2.10;;
14125;SDS011;7141;49.484;11.242;2023-05-29T11:51:54;3.53;;;2.63;;
14125;SDS011;7141;49.484;11.242;2023-05-29T11:54:30;3.53;;;2.50;;
14125;SDS011;7141;49.484;11.242;2023-05-29T11:56:58;4.93;;;2.73;;
14125;SDS011;7141;49.484;11.242;2023-05-29T11:59:25;6.30;;;2.60;;
14125;SDS011;7141;49.484;11.242;2023-05-29T12:01:53;3.57;;;2.57;;
14125;SDS011;7141;49.484;11.242;2023-05-29T12:04:19;3.60;;;2.60;;
14125;SDS011;7141;49.484;11.242;2023-05-29T12:06:45;4.73;;;2.73;;
14125;SDS011;7141;49.484;11.242;2023-05-29T12:09:27;3.23;;;2.40;;
14125;SDS011;7141;49.484;11.242;2023-05-29T12:11:54;3.87;;;2.30;;
14125;SDS011;7141;49.484;11.242;2023-05-29T12:14:26;3.73;;;2.80;;
14125;SDS011;7141;49.484;11.242;2023-05-29T12:16:52;3.30;;;2.50;;
14125;SDS011;7141;49.484;11.242;2023-05-29T12:19:18;5.03;;;2.67;;
14125;SDS011;7141;49.484;11.242;2023-05-29T12:21:44;5.93;;;2.30;;
14125;SDS011;7141;49.484;11.242;2023-05-29T12:24:10;5.40;;;2.67;;
14125;SDS011;7141;49.484;11.242;2023-05-29T12:26:36;3.40;;;2.30;;
14125;SDS011;7141;49.484;11.242;2023-05-29T12:29:03;2.70;;;2.20;;
14125;SDS011;7141;49.484;11.242;2023-05-29T12:31:30;4.40;;;2.70;;
14125;SDS011;7141;49.484;11.242;2023-05-29T12:34:06;4.53;;;2.40;;
14125;SDS011;7141;49.484;11.242;2023-05-29T12:36:33;4.23;;;2.43;;
14125;SDS011;7141;49.484;11.242;2023-05-29T12:38:59;3.40;;;2.40;;
14125;SDS011;7141;49.484;11.242;2023-05-29T12:43:58;4.80;;;2.40;;
14125;SDS011;7141;49.484;11.242;2023-05-29T12:46:24;5.23;;;2.20;;
14125;SDS011;7141;49.484;11.242;2023-05-29T12:48:54;3.73;;;2.30;;
14125;SDS011;7141;49.484;11.242;2023-05-29T12:51:27;4.40;;;2.50;;
14125;SDS011;7141;49.484;11.242;2023-05-29T12:53:53;3.27;;;2.60;;
14125;SDS011;7141;49.484;11.242;2023-05-29T12:56:22;2.93;;;2.40;;
14125;SDS011;7141;49.484;11.242;2023-05-29T12:58:50;3.53;;;2.27;;
14125;SDS011;7141;49.484;11.242;2023-05-29T13:01:16;2.73;;;2.20;;
14125;SDS011;7141;49.484;11.242;2023-05-29T13:03:42;4.03;;;2.30;;
14125;SDS011;7141;49.484;11.242;2023-05-29T13:06:09;3.57;;;2.60;;
14125;SDS011;7141;49.484;11.242;2023-05-29T13:08:35;3.37;;;2.57;;
14125;SDS011;7141;49.484;11.242;2023-05-29T13:11:01;11.30;;;2.50;;
14125;SDS011;7141;49.484;11.242;2023-05-29T13:13:27;3.30;;;2.60;;
14125;SDS011;7141;49.484;11.242;2023-05-29T13:15:53;3.73;;;2.73;;
14125;SDS011;7141;49.484;11.242;2023-05-29T13:18:19;4.23;;;2.77;;
14125;SDS011;7141;49.484;11.242;2023-05-29T13:20:45;3.30;;;2.33;;
14125;SDS011;7141;49.484;11.242;2023-05-29T13:23:12;2.50;;;2.30;;
14125;SDS011;7141;49.484;11.242;2023-05-29T13:25:37;4.90;;;3.43;;
14125;SDS011;7141;49.484;11.242;2023-05-29T13:28:03;5.00;;;3.20;;
14125;SDS011;7141;49.484;11.242;2023-05-29T13:30:29;2.80;;;2.40;;
14125;SDS011;7141;49.484;11.242;2023-05-29T13:32:55;4.07;;;2.87;;
14125;SDS011;7141;49.484;11.242;2023-05-29T13:35:21;3.33;;;2.60;;
14125;SDS011;7141;49.484;11.242;2023-05-29T13:37:47;2.80;;;2.50;;
14125;SDS011;7141;49.484;11.242;2023-05-29T13:40:14;2.60;;;2.40;;
14125;SDS011;7141;49.484;11.242;2023-05-29T13:42:40;5.20;;;2.80;;
14125;SDS011;7141;49.484;11.242;2023-05-29T13:45:06;3.40;;;2.73;;
14125;SDS011;7141;49.484;11.242;2023-05-29T13:47:33;4.20;;;2.60;;
14125;SDS011;7141;49.484;11.242;2023-05-29T13:49:59;4.60;;;2.70;;
14125;SDS011;7141;49.484;11.242;2023-05-29T13:52:25;3.20;;;2.70;;
14125;SDS011;7141;49.484;11.242;2023-05-29T13:54:51;3.60;;;2.53;;
14125;SDS011;7141;49.484;11.242;2023-05-29T13:57:17;5.93;;;2.67;;
14125;SDS011;7141;49.484;11.242;2023-05-29T13:59:44;2.73;;;2.40;;
14125;SDS011;7141;49.484;11.242;2023-05-29T14:02:10;2.63;;;2.43;;
14125;SDS011;7141;49.484;11.242;2023-05-29T14:04:36;3.00;;;2.70;;
14125;SDS011;7141;49.484;11.242;2023-05-29T14:07:03;2.43;;;2.23;;
14125;SDS011;7141;49.484;11.242;2023-05-29T14:09:30;5.03;;;2.70;;
14125;SDS011;7141;49.484;11.242;2023-05-29T14:11:57;4.50;;;2.60;;
14125;SDS011;7141;49.484;11.242;2023-05-29T14:14:23;2.77;;;2.40;;
14125;SDS011;7141;49.484;11.242;2023-05-29T14:16:50;4.83;;;2.80;;
14125;SDS011;7141;49.484;11.242;2023-05-29T14:19:16;3.83;;;2.77;;
14125;SDS011;7141;49.484;11.242;2023-05-29T14:21:42;2.80;;;2.33;;
14125;SDS011;7141;49.484;11.242;2023-05-29T14:24:08;3.33;;;2.53;;
14125;SDS011;7141;49.484;11.242;2023-05-29T14:26:34;2.67;;;2.37;;
14125;SDS011;7141;49.484;11.242;2023-05-29T14:29:01;3.57;;;2.90;;
14125;SDS011;7141;49.484;11.242;2023-05-29T14:31:27;4.67;;;2.87;;
14125;SDS011;7141;49.484;11.242;2023-05-29T14:33:53;4.67;;;3.80;;
14125;SDS011;7141;49.484;11.242;2023-05-29T14:36:19;3.03;;;2.23;;
14125;SDS011;7141;49.484;11.242;2023-05-29T14:38:45;9.90;;;2.90;;
14125;SDS011;7141;49.484;11.242;2023-05-29T14:41:12;2.87;;;2.40;;
14125;SDS011;7141;49.484;11.242;2023-05-29T14:43:40;4.23;;;2.50;;
14125;SDS011;7141;49.484;11.242;2023-05-29T14:46:07;4.20;;;2.30;;
14125;SDS011;7141;49.484;11.242;2023-05-29T14:48:33;3.97;;;3.13;;
14125;SDS011;7141;49.484;11.242;2023-05-29T14:50:59;3.83;;;2.20;;
14125;SDS011;7141;49.484;11.242;2023-05-29T14:53:25;3.38;;;2.40;;
14125;SDS011;7141;49.484;11.242;2023-05-29T14:55:51;4.97;;;2.92;;
14125;SDS011;7141;49.484;11.242;2023-05-29T14:58:16;6.15;;;3.03;;
14125;SDS011;7141;49.484;11.242;2023-05-29T15:00:42;6.10;;;2.60;;
14125;SDS011;7141;49.484;11.242;2023-05-29T15:03:08;4.18;;;2.90;;
14125;SDS011;7141;49.484;11.242;2023-05-29T15:05:34;3.78;;;2.53;;
14125;SDS011;7141;49.484;11.242;2023-05-29T15:08:00;3.55;;;2.60;;
14125;SDS011;7141;49.484;11.242;2023-05-29T15:10:26;5.15;;;2.72;;
14125;SDS011;7141;49.484;11.242;2023-05-29T15:12:53;4.35;;;2.78;;
14125;SDS011;7141;49.484;11.242;2023-05-29T15:15:25;2.90;;;2.60;;
14125;SDS011;7141;49.484;11.242;2023-05-29T15:17:51;4.93;;;3.05;;
14125;SDS011;7141;49.484;11.242;2023-05-29T15:20:20;3.17;;;2.67;;
14125;SDS011;7141;49.484;11.242;2023-05-29T15:22:46;3.78;;;2.88;;